createdAt,value
2022-10-11T00:02:21.687Z,100831
2022-10-11T00:07:21.684Z,100831
2022-10-11T00:12:21.725Z,100828
2022-10-11T00:17:21.817Z,100827
2022-10-11T00:22:21.714Z,100822
2022-10-11T00:27:21.816Z,100815
2022-10-11T00:32:21.692Z,100810
2022-10-11T00:37:21.791Z,100815
2022-10-11T00:42:21.720Z,100813
2022-10-11T00:47:21.707Z,100810
2022-10-11T00:52:21.744Z,100818
2022-10-11T00:57:22.034Z,100819
2022-10-11T01:02:21.711Z,100810
2022-10-11T01:07:21.999Z,100804
2022-10-11T01:17:22.228Z,100804
2022-10-11T01:22:21.801Z,100803
2022-10-11T01:27:21.756Z,100804
2022-10-11T01:32:21.751Z,100804
2022-10-11T01:37:21.718Z,100793
2022-10-11T01:42:21.784Z,100795
2022-10-11T01:47:21.755Z,100785
2022-10-11T01:52:21.772Z,100785
2022-10-11T01:57:21.751Z,100778
2022-10-11T02:02:21.744Z,100786
2022-10-11T02:07:21.823Z,100793
2022-10-11T02:12:21.716Z,100786
2022-10-11T02:17:21.795Z,100786
2022-10-11T02:22:21.757Z,100785
2022-10-11T02:27:22.073Z,100789
2022-10-11T02:32:21.775Z,100787
2022-10-11T02:37:21.774Z,100800
2022-10-11T02:42:21.782Z,100787
2022-10-11T02:47:21.773Z,100790
2022-10-11T02:52:21.748Z,100799
2022-10-11T02:57:21.983Z,100799
2022-10-11T03:02:21.859Z,100798
2022-10-11T03:07:21.962Z,100800
2022-10-11T03:12:21.750Z,100796
2022-10-11T03:17:36.106Z,100789
2022-10-11T03:22:21.784Z,100789
2022-10-11T03:27:21.905Z,100791
2022-10-11T03:32:21.746Z,100796
2022-10-11T03:37:21.866Z,100806
2022-10-11T03:42:21.761Z,100806
2022-10-11T03:47:21.833Z,100814
2022-10-11T03:52:21.784Z,100818
2022-10-11T03:57:21.789Z,100818
2022-10-11T04:02:21.800Z,100823
2022-10-11T04:07:21.838Z,100822
2022-10-11T04:12:21.946Z,100829
2022-10-11T04:17:22.058Z,100822
2022-10-11T04:22:21.796Z,100828
2022-10-11T04:27:22.017Z,100823
2022-10-11T04:32:21.804Z,100825
2022-10-11T04:37:21.996Z,100826
2022-10-11T04:42:21.793Z,100823
2022-10-11T04:47:21.828Z,100818
2022-10-11T04:52:25.566Z,100818
2022-10-11T04:57:21.842Z,100818
2022-10-11T05:07:21.930Z,100823
2022-10-11T05:12:21.806Z,100823
2022-10-11T05:17:21.853Z,100820
2022-10-11T05:22:21.835Z,100823
2022-10-11T05:27:22.168Z,100836
2022-10-11T05:32:23.740Z,100839
2022-10-11T05:37:21.837Z,100852
2022-10-11T05:42:21.827Z,100848
2022-10-11T05:47:21.862Z,100856
2022-10-11T05:52:21.824Z,100856
2022-10-11T05:57:21.843Z,100868
2022-10-11T06:02:21.876Z,100871
2022-10-11T06:07:22.065Z,100882
2022-10-11T06:12:21.835Z,100884
2022-10-11T06:17:22.032Z,100884
2022-10-11T06:22:21.855Z,100885
2022-10-11T06:27:21.996Z,100886
2022-10-11T06:32:22.122Z,100889
2022-10-11T06:37:21.924Z,100895
2022-10-11T06:42:21.882Z,100894
2022-10-11T06:47:21.864Z,100894
2022-10-11T06:57:21.895Z,100890
2022-10-11T07:02:21.975Z,100894
2022-10-11T07:07:21.881Z,100894
2022-10-11T07:12:21.879Z,100905
2022-10-11T07:22:21.934Z,100912
2022-10-11T07:27:22.104Z,100905
2022-10-11T07:32:21.905Z,100904
2022-10-11T07:37:22.081Z,100903
2022-10-11T07:42:22.021Z,100903
2022-10-11T07:47:21.906Z,100909
2022-10-11T07:52:21.910Z,100913
2022-10-11T07:57:21.938Z,100926
2022-10-11T08:02:21.909Z,100926
2022-10-11T08:07:21.906Z,100923
2022-10-11T08:12:21.923Z,100928
2022-10-11T08:17:22.217Z,100923
2022-10-11T08:22:21.922Z,100923
2022-10-11T08:27:22.233Z,100926
2022-10-11T08:32:21.951Z,100926
2022-10-11T08:37:21.923Z,100926
2022-10-11T08:42:21.897Z,100926
2022-10-11T08:47:21.922Z,100926
2022-10-11T08:52:21.910Z,100926
2022-10-11T08:57:22.155Z,100914
2022-10-11T09:02:21.940Z,100917
2022-10-11T09:07:22.252Z,100917
2022-10-11T09:12:21.933Z,100914
2022-10-11T09:17:22.088Z,100918
2022-10-11T09:22:23.249Z,100925
2022-10-11T09:27:37.858Z,100928
2022-10-11T09:32:21.943Z,100927
2022-10-11T09:37:22.028Z,100933
2022-10-11T09:42:21.956Z,100926
2022-10-11T09:47:22.002Z,100930
2022-10-11T09:52:21.938Z,100929
2022-10-11T09:57:22.287Z,100926
2022-10-11T10:02:21.958Z,100926
2022-10-11T10:07:22.253Z,100928
2022-10-11T10:12:21.976Z,100923
2022-10-11T10:17:22.218Z,100919
2022-10-11T10:22:21.973Z,100913
2022-10-11T10:27:22.193Z,100904
2022-10-11T10:32:22.233Z,100904
2022-10-11T10:37:22.136Z,100905
2022-10-11T10:42:22.016Z,100902
2022-10-11T10:47:21.968Z,100902
2022-10-11T10:52:22.001Z,100899
2022-10-11T10:57:21.998Z,100899
2022-10-11T11:02:39.714Z,100892
2022-10-11T11:07:21.989Z,100892
2022-10-11T11:12:22.025Z,100900
2022-10-11T11:17:22.017Z,100894
2022-10-11T11:22:22.037Z,100901
2022-10-11T11:27:22.014Z,100892
2022-10-11T11:32:22.004Z,100897
2022-10-11T11:37:22.006Z,100889
2022-10-11T11:42:22.008Z,100885
2022-10-11T11:47:22.017Z,100882
2022-10-11T11:52:21.992Z,100876
2022-10-11T11:57:22.028Z,100881
2022-10-11T12:07:24.026Z,100876
2022-10-11T12:12:21.990Z,100876
2022-10-11T12:17:22.436Z,100863
2022-10-11T12:22:22.036Z,100860
2022-10-11T12:27:22.404Z,100860
2022-10-11T12:32:22.228Z,100861
2022-10-11T12:37:22.085Z,100861
2022-10-11T12:42:22.201Z,100854
2022-10-11T12:47:22.041Z,100859
2022-10-11T12:52:24.038Z,100854
2022-10-11T12:57:22.616Z,100847
2022-10-11T13:02:22.027Z,100845
2022-10-11T13:07:22.319Z,100852
2022-10-11T13:12:24.059Z,100852
2022-10-11T13:17:22.261Z,100851
2022-10-11T13:22:22.061Z,100852
2022-10-11T13:27:22.524Z,100844
2022-10-11T13:32:22.062Z,100842
2022-10-11T13:37:22.240Z,100842
2022-10-11T13:42:22.077Z,100842
2022-10-11T13:47:22.216Z,100845
2022-10-11T13:57:22.448Z,100848
2022-10-11T14:02:22.091Z,100850
2022-10-11T14:07:22.145Z,100850
2022-10-11T14:12:22.095Z,100849
2022-10-11T14:22:22.115Z,100847
2022-10-11T14:27:22.382Z,100854
2022-10-11T14:32:22.101Z,100852
2022-10-11T14:37:22.354Z,100852
2022-10-11T14:42:22.152Z,100850
2022-10-11T14:47:24.141Z,100847
2022-10-11T14:52:22.083Z,100850
2022-10-11T14:57:22.123Z,100849
2022-10-11T15:02:22.086Z,100849
2022-10-11T15:07:22.127Z,100846
2022-10-11T15:12:22.169Z,100844
2022-10-11T15:17:22.123Z,100844
2022-10-11T15:22:22.135Z,100855
2022-10-11T15:27:22.131Z,100860
2022-10-11T15:32:22.139Z,100864
2022-10-11T15:37:22.206Z,100870
2022-10-11T15:42:22.107Z,100875
2022-10-11T15:47:22.142Z,100878
2022-10-11T15:52:22.141Z,100878
2022-10-11T15:57:22.448Z,100879
2022-10-11T16:02:22.123Z,100885
2022-10-11T16:07:22.420Z,100888
2022-10-11T16:12:22.133Z,100894
2022-10-11T16:17:22.650Z,100894
2022-10-11T16:22:22.166Z,100901
2022-10-11T16:27:22.153Z,100907
2022-10-11T16:32:22.165Z,100914
2022-10-11T16:37:22.320Z,100915
2022-10-11T16:42:22.165Z,100920
2022-10-11T16:47:22.146Z,100927
2022-10-11T16:52:22.182Z,100932
2022-10-11T17:02:22.206Z,100932
2022-10-11T17:07:22.208Z,100943
2022-10-11T17:12:22.375Z,100943
2022-10-11T17:17:22.512Z,100948
2022-10-11T17:27:22.744Z,100954
2022-10-11T17:37:24.450Z,100959
2022-10-11T17:42:22.185Z,100959
2022-10-11T17:47:22.194Z,100960
2022-10-11T17:57:22.354Z,100969
2022-10-11T18:02:22.383Z,100966
2022-10-11T18:07:22.217Z,100968
2022-10-11T18:12:22.450Z,100968
2022-10-11T18:17:22.342Z,100967
2022-10-11T18:22:22.182Z,100975
2022-10-11T18:32:24.482Z,100978
2022-10-11T18:37:22.280Z,100978
2022-10-11T18:42:22.367Z,100980
2022-10-11T18:47:22.575Z,100978
2022-10-11T18:52:22.476Z,100970
2022-10-11T18:57:24.478Z,100968
2022-10-11T19:02:22.219Z,100973
2022-10-11T19:07:22.435Z,100973
2022-10-11T19:12:24.246Z,100976
2022-10-11T19:17:22.493Z,100976
2022-10-11T19:22:22.508Z,100973
2022-10-11T19:27:22.234Z,100978
2022-10-11T19:32:22.272Z,100983
2022-10-11T19:37:22.446Z,100987
2022-10-11T19:42:26.509Z,100988
2022-10-11T19:47:22.595Z,100989
2022-10-11T19:52:24.772Z,100989
2022-10-11T19:57:24.345Z,100988
2022-10-11T20:02:22.248Z,100995
2022-10-11T20:07:22.301Z,100995
2022-10-11T20:12:22.266Z,101002
2022-10-11T20:17:22.752Z,101002
2022-10-11T20:22:22.378Z,100999
2022-10-11T20:27:22.286Z,100999
2022-10-11T20:32:24.793Z,101003
2022-10-11T20:37:22.286Z,101004
2022-10-11T20:42:25.257Z,101004
2022-10-11T20:47:22.532Z,101010
2022-10-11T20:52:22.256Z,101009
2022-10-11T20:57:22.310Z,101008
2022-10-11T21:02:22.329Z,101014
2022-10-11T21:07:22.314Z,101015
2022-10-11T21:12:22.265Z,101014
2022-10-11T21:17:22.573Z,101014
2022-10-11T21:22:22.305Z,101016
2022-10-11T21:27:22.290Z,101014
2022-10-11T21:32:22.328Z,101014
2022-10-11T21:37:22.339Z,101016
2022-10-11T21:42:27.181Z,101014
2022-10-11T21:47:22.330Z,101013
2022-10-11T21:52:22.340Z,101010
2022-10-11T21:57:22.320Z,101012
2022-10-11T22:02:22.316Z,101010
2022-10-11T22:07:22.328Z,101015
2022-10-11T22:12:22.298Z,101015
2022-10-11T22:17:22.548Z,101010
2022-10-11T22:22:22.302Z,101010
2022-10-11T22:27:22.514Z,101020
2022-10-11T22:32:22.366Z,101017
2022-10-11T22:37:22.487Z,101019
2022-10-11T22:42:26.868Z,101023
2022-10-11T22:47:22.459Z,101015
2022-10-11T22:52:22.318Z,101016
2022-10-11T22:57:22.429Z,101019
2022-10-11T23:02:22.317Z,101019
2022-10-11T23:07:22.386Z,101019
2022-10-11T23:12:22.545Z,101019
2022-10-11T23:17:22.446Z,101023
2022-10-11T23:22:22.326Z,101026
2022-10-11T23:27:22.649Z,101033
2022-10-11T23:32:22.504Z,101037
2022-10-11T23:37:22.603Z,101033
2022-10-11T23:42:22.370Z,101040
2022-10-11T23:47:22.341Z,101040
2022-10-11T23:52:22.381Z,101040
2022-10-11T23:57:22.376Z,101044
